American Falls, Idaho
Current Conditions -  °F | °C
As of 5:53 AM on Saturday 01 Nov 2014 (Local Time) from KPIH Reporting Station
Clear Clear  
Wind Chill: 46°   Ceiling: Unl
Heat Index: 46°   Visibility: 10mi
Dew Point: 32°   Wind: 0mph
Humidity: 58%   Direction: NA
Pressure: 29.67"   Gusts: NA
Location:  42.79°N, 112.85°W
Report Text: KPIH 011153Z 00000KT 10SM CLR 08/00 A2967 RMK AO2 SLP024 T00780000 10133 20072 56008
Loading
Personal Weather Stations






























Interactive Weather Map
Tropical Storm Tracking
New forecast layout! Learn more

10-Day Weather Forecast

Advertisements
Track Severe Weather on mobile